Keith, Illinois
Current Conditions -  °F | °C
As of 9:15 AM on Friday 31 Oct 2014 (Local Time) from KFOA Reporting Station
Clear Clear  
Wind Chill: 35°   Ceiling: Unl
Heat Index: 43°   Visibility: 10mi
Dew Point: 35°   Wind: 18mph
Humidity: 73%   Direction: 330°NNW
Pressure: 30.14"   Gusts: 28mph
Location:  38.5816°N, 88.4678°W
Report Text: KFOA 311415Z AUTO 33016G24KT 10SM CLR 06/02 A3014 RMK AO2 T00630018
Loading
Personal Weather Stations






























Interactive Weather Map New forecast layout! Learn more

10-Day Weather Forecast

Advertisements
Track Severe Weather on mobile